Time;durP1;ratioP1;P1;durP2;ratioP2;P2;SDS_P1;SDS_P2;PMS_P1;PMS_P2;Temp;Humidity;BMP_temperature;BMP_pressure;BME280_temperature;BME280_humidity;BME280_pressure;Samples;Min_cycle;Max_cycle;Signal;HPM_P1;HPM_P2
2023/03/07 00:00:02;;;;;;;45.70;24.00;;;;;;;7.56;100.00;98759.81;5111566;28;20202;-59
2023/03/07 00:02:29;;;;;;;42.23;23.30;;;;;;;7.52;100.00;98760.81;5112041;28;20679;-59
2023/03/07 00:04:56;;;;;;;37.00;23.23;;;;;;;7.53;100.00;98762.50;5111439;28;20717;-59
2023/03/07 00:07:23;;;;;;;38.83;23.73;;;;;;;7.56;100.00;98752.06;5111740;28;20694;-59
2023/03/07 00:09:49;;;;;;;41.40;24.43;;;;;;;7.53;100.00;98751.34;5111937;28;20629;-59
2023/03/07 00:12:19;;;;;;;39.07;23.10;;;;;;;7.57;100.00;98753.78;5111948;28;20694;-59
2023/03/07 00:14:46;;;;;;;40.47;23.70;;;;;;;7.48;100.00;98748.03;5111688;28;20202;-59
2023/03/07 00:17:13;;;;;;;39.07;22.87;;;;;;;7.32;100.00;98755.38;5111555;28;20198;-59
2023/03/07 00:19:42;;;;;;;34.53;22.37;;;;;;;7.21;100.00;98753.09;5111227;28;20190;-60
2023/03/07 00:22:09;;;;;;;40.00;22.73;;;;;;;7.10;100.00;98757.69;5111383;28;20190;-59
2023/03/07 00:24:35;;;;;;;37.73;22.90;;;;;;;7.17;100.00;98753.19;5111483;28;20195;-59
2023/03/07 00:27:03;;;;;;;38.10;22.63;;;;;;;7.18;100.00;98745.44;5111702;28;20224;-60
2023/03/07 00:29:31;;;;;;;39.53;21.73;;;;;;;7.19;100.00;98754.88;5111075;28;20190;-60
2023/03/07 00:31:58;;;;;;;33.87;21.03;;;;;;;7.31;100.00;98752.84;5110448;28;20620;-59
2023/03/07 00:34:25;;;;;;;35.53;22.03;;;;;;;7.19;100.00;98746.28;5111052;28;20290;-59
2023/03/07 00:36:53;;;;;;;36.53;21.10;;;;;;;7.10;100.00;98739.63;5111279;28;20231;-60
2023/03/07 00:39:19;;;;;;;38.37;22.43;;;;;;;7.10;100.00;98754.28;5111525;28;20574;-59
2023/03/07 00:41:46;;;;;;;34.73;22.10;;;;;;;6.99;100.00;98749.41;5111161;28;20774;-59
2023/03/07 00:44:13;;;;;;;35.70;20.90;;;;;;;7.06;100.00;98747.50;5111111;28;20194;-59
2023/03/07 00:46:41;;;;;;;35.70;21.83;;;;;;;7.17;100.00;98741.16;5110812;28;20217;-60
2023/03/07 00:49:08;;;;;;;37.50;22.50;;;;;;;7.16;100.00;98736.03;5111094;28;20677;-60
2023/03/07 00:51:35;;;;;;;35.00;21.87;;;;;;;7.06;100.00;98727.69;5110963;28;20218;-58
2023/03/07 00:54:02;;;;;;;37.27;22.40;;;;;;;7.06;100.00;98722.53;5110944;28;20771;-58
2023/03/07 00:56:29;;;;;;;47.33;22.13;;;;;;;7.09;100.00;98719.03;5110855;28;20199;-59
2023/03/07 00:58:56;;;;;;;38.07;22.53;;;;;;;6.99;100.00;98715.88;5110616;28;20194;-59
2023/03/07 01:01:25;;;;;;;37.80;22.93;;;;;;;6.94;100.00;98712.53;5110734;28;20194;-59
2023/03/07 01:03:54;;;;;;;41.40;23.27;;;;;;;6.99;100.00;98713.28;5110388;28;20226;-59
2023/03/07 01:06:23;;;;;;;36.23;21.20;;;;;;;6.85;100.00;98684.44;5111006;28;20198;-58
2023/03/07 01:08:50;;;;;;;38.97;22.60;;;;;;;6.87;100.00;98705.88;5110484;28;20205;-60
2023/03/07 01:11:17;;;;;;;37.93;23.00;;;;;;;6.90;100.00;98711.78;5110392;28;20190;-59
2023/03/07 01:13:44;;;;;;;38.67;23.07;;;;;;;6.80;100.00;98706.91;5110429;28;20199;-59
2023/03/07 01:16:13;;;;;;;34.47;21.37;;;;;;;6.69;100.00;98698.59;5110122;28;20195;-59
2023/03/07 01:18:41;;;;;;;37.87;22.10;;;;;;;6.63;100.00;98709.09;5110126;28;20201;-59
2023/03/07 01:21:14;;;;;;;40.07;23.03;;;;;;;6.62;100.00;98709.97;5110533;28;20203;-58
2023/03/07 01:23:41;;;;;;;35.63;22.20;;;;;;;6.64;100.00;98695.31;5110125;28;20194;-62
2023/03/07 01:26:12;;;;;;;34.97;22.03;;;;;;;6.69;100.00;98704.59;5110273;28;20662;-60
2023/03/07 01:28:39;;;;;;;38.47;21.73;;;;;;;6.63;100.00;98673.00;5109995;28;20201;-59
2023/03/07 01:31:05;;;;;;;41.77;21.07;;;;;;;6.75;100.00;98694.16;5110162;28;20340;-58
2023/03/07 01:33:32;;;;;;;33.93;22.27;;;;;;;6.76;100.00;98697.56;5110342;28;20229;-57
2023/03/07 01:35:59;;;;;;;36.23;21.40;;;;;;;6.74;100.00;98699.34;5109872;28;20199;-58
2023/03/07 01:38:32;;;;;;;35.80;22.20;;;;;;;6.79;100.00;98694.88;5110197;28;20198;-59
2023/03/07 01:41:00;;;;;;;33.63;21.50;;;;;;;6.75;100.00;98682.97;5109592;28;20194;-58
2023/03/07 01:43:29;;;;;;;36.80;22.33;;;;;;;6.77;100.00;98702.66;5109143;28;20190;-59
2023/03/07 01:46:40;;;;;;;38.03;22.63;;;;;;;6.68;100.00;98690.03;5108719;28;20587;-59
2023/03/07 01:49:12;;;;;;;34.47;21.57;;;;;;;6.63;100.00;98709.09;5106484;28;20190;-59
2023/03/07 01:51:41;;;;;;;35.80;21.83;;;;;;;6.45;100.00;98698.34;5107967;28;20233;-60
2023/03/07 01:54:15;;;;;;;41.27;23.27;;;;;;;6.47;100.00;98716.34;5108481;28;20201;-58
2023/03/07 01:56:44;;;;;;;38.20;23.33;;;;;;;6.45;100.00;98706.06;5105644;28;20285;-59
2023/03/07 01:59:12;;;;;;;41.37;24.23;;;;;;;6.34;100.00;98697.75;5108201;28;20198;-59
2023/03/07 02:01:39;;;;;;;39.37;24.13;;;;;;;6.38;100.00;98706.28;5106692;28;20232;-60
2023/03/07 02:04:11;;;;;;;48.67;25.67;;;;;;;6.40;100.00;98704.50;5109500;28;20208;-59
2023/03/07 02:06:39;;;;;;;42.50;24.80;;;;;;;6.46;100.00;98702.63;5109870;28;20622;-60
2023/03/07 02:09:11;;;;;;;40.57;23.37;;;;;;;6.41;100.00;98686.44;5109558;28;20684;-60
2023/03/07 02:11:42;;;;;;;40.37;24.07;;;;;;;6.36;100.00;98701.16;5109489;28;20706;-59
2023/03/07 02:14:09;;;;;;;38.27;22.83;;;;;;;6.32;100.00;98691.81;5109567;28;20285;-59
2023/03/07 02:16:37;;;;;;;36.50;21.77;;;;;;;6.31;100.00;98695.28;5109399;28;20201;-59
2023/03/07 02:19:11;;;;;;;35.47;22.47;;;;;;;6.27;100.00;98705.69;5109291;28;20262;-58
2023/03/07 02:21:43;;;;;;;37.40;22.33;;;;;;;6.18;100.00;98696.47;5109557;28;20583;-57
2023/03/07 02:24:22;;;;;;;35.77;21.73;;;;;;;6.16;100.00;98698.22;5109322;28;20198;-61
2023/03/07 02:26:52;;;;;;;40.17;23.60;;;;;;;6.03;100.00;98709.69;5108982;28;20198;-60
2023/03/07 02:29:20;;;;;;;33.50;21.60;;;;;;;6.17;100.00;98710.22;5109570;28;20198;-59
2023/03/07 02:31:47;;;;;;;35.30;21.57;;;;;;;6.06;100.00;98714.78;5108976;28;20198;-58
2023/03/07 02:34:22;;;;;;;35.30;21.37;;;;;;;6.06;100.00;98712.22;5109316;28;20232;-58
2023/03/07 02:36:52;;;;;;;36.60;21.77;;;;;;;5.98;100.00;98703.81;5109048;28;20198;-59
2023/03/07 02:39:22;;;;;;;38.90;22.67;;;;;;;5.93;100.00;98711.66;5108766;28;20202;-59
2023/03/07 02:41:54;;;;;;;33.63;21.70;;;;;;;5.89;100.00;98706.59;5109335;28;20839;-60
2023/03/07 02:44:21;;;;;;;36.53;21.50;;;;;;;5.95;100.00;98707.31;5109072;28;20244;-59
2023/03/07 02:46:48;;;;;;;33.00;20.63;;;;;;;5.94;100.00;98697.03;5108917;28;20680;-59
2023/03/07 02:49:15;;;;;;;37.87;20.70;;;;;;;5.75;100.00;98656.25;5109218;28;20199;-59
2023/03/07 02:51:42;;;;;;;35.40;21.07;;;;;;;5.98;100.00;98694.34;5108959;28;20197;-60
2023/03/07 02:54:09;;;;;;;29.67;19.40;;;;;;;5.89;100.00;98701.44;5109072;28;20194;-60
2023/03/07 02:56:36;;;;;;;31.83;21.43;;;;;;;5.83;100.00;98697.25;5113157;28;20205;-60
2023/03/07 02:59:04;;;;;;;30.87;19.90;;;;;;;5.80;100.00;98705.03;5113405;28;20542;-60
2023/03/07 03:01:31;;;;;;;35.87;19.73;;;;;;;5.75;100.00;98692.28;5113267;28;20206;-60
2023/03/07 03:03:58;;;;;;;32.80;19.87;;;;;;;5.81;100.00;98701.59;5113020;28;20317;-59
2023/03/07 03:06:25;;;;;;;32.80;19.97;;;;;;;5.82;100.00;98699.00;5113010;28;20611;-61
2023/03/07 03:08:52;;;;;;;32.13;19.13;;;;;;;5.80;100.00;98700.75;5113136;28;20578;-58
2023/03/07 03:11:19;;;;;;;30.50;19.10;;;;;;;5.73;100.00;98686.31;5113141;28;20224;-59
2023/03/07 03:13:46;;;;;;;33.87;19.47;;;;;;;5.88;100.00;98687.72;5112717;28;20222;-59
2023/03/07 03:16:14;;;;;;;33.43;19.10;;;;;;;5.72;100.00;98697.50;5112750;28;20226;-60
2023/03/07 03:18:41;;;;;;;33.10;20.13;;;;;;;5.72;100.00;98697.50;5112729;28;20197;-59
2023/03/07 03:21:09;;;;;;;31.20;18.53;;;;;;;5.75;100.00;98696.59;5112418;28;20689;-59
2023/03/07 03:23:36;;;;;;;36.47;21.30;;;;;;;5.74;100.00;98695.75;5112857;28;20186;-60
2023/03/07 03:26:06;;;;;;;31.37;20.07;;;;;;;5.67;100.00;98696.75;5112649;28;20205;-58
2023/03/07 03:28:33;;;;;;;30.77;19.20;;;;;;;5.64;100.00;98689.13;5112874;28;20199;-59
2023/03/07 03:31:01;;;;;;;32.03;19.63;;;;;;;5.73;100.00;98690.63;5112600;28;20212;-60
2023/03/07 03:33:30;;;;;;;32.03;20.90;;;;;;;5.72;100.00;98700.09;5112250;28;20232;-59
2023/03/07 03:35:57;;;;;;;34.37;20.53;;;;;;;5.65;100.00;98698.50;5112235;28;20447;-59
2023/03/07 03:38:24;;;;;;;32.93;19.93;;;;;;;5.77;100.00;98698.22;5112583;28;20722;-59
2023/03/07 03:40:51;;;;;;;34.20;20.43;;;;;;;5.69;100.00;98707.84;5112239;28;20201;-59
2023/03/07 03:43:19;;;;;;;30.73;20.23;;;;;;;5.69;100.00;98702.72;5112243;28;20187;-59
2023/03/07 03:45:54;;;;;;;34.73;20.37;;;;;;;5.54;100.00;98695.31;5112137;28;20698;-60
2023/03/07 03:48:21;;;;;;;35.20;20.93;;;;;;;5.68;100.00;98695.88;5111886;28;20222;-60
2023/03/07 03:50:49;;;;;;;35.33;21.10;;;;;;;5.55;100.00;98689.28;5111954;28;20203;-59
2023/03/07 03:53:16;;;;;;;34.17;20.00;;;;;;;5.59;100.00;98687.50;5111889;28;20215;-60
2023/03/07 03:55:43;;;;;;;33.57;20.50;;;;;;;5.58;100.00;98689.22;5112041;28;20286;-58
2023/03/07 03:58:11;;;;;;;30.13;18.70;;;;;;;5.57;100.00;98697.84;5111774;28;20195;-59
2023/03/07 04:00:38;;;;;;;35.87;19.63;;;;;;;5.70;100.00;98696.69;5111820;28;20623;-59
2023/03/07 04:03:05;;;;;;;39.03;20.90;;;;;;;5.81;100.00;98702.44;5111766;28;20214;-59
2023/03/07 04:05:34;;;;;;;34.03;20.37;;;;;;;5.61;100.00;98698.63;5111985;28;20206;-59
2023/03/07 04:08:03;;;;;;;33.40;20.60;;;;;;;5.58;100.00;98699.53;5110506;28;20202;-59
2023/03/07 04:10:29;;;;;;;34.90;21.53;;;;;;;5.52;100.00;98706.53;5111604;28;20199;-59
2023/03/07 04:12:56;;;;;;;38.20;19.73;;;;;;;5.59;100.00;98708.94;5111540;28;20228;-59
2023/03/07 04:15:23;;;;;;;37.73;22.60;;;;;;;5.54;100.00;98722.78;5111513;28;20198;-59
2023/03/07 04:17:50;;;;;;;41.77;24.63;;;;;;;5.49;100.00;98722.91;5111049;28;20713;-61
2023/03/07 04:20:17;;;;;;;37.27;23.20;;;;;;;5.54;100.00;98712.47;5111410;28;20666;-60
2023/03/07 04:22:44;;;;;;;45.73;24.60;;;;;;;5.56;100.00;98716.72;5111543;28;20191;-60
2023/03/07 04:25:13;;;;;;;38.63;23.57;;;;;;;5.61;100.00;98714.91;5111424;28;20201;-60
2023/03/07 04:27:40;;;;;;;44.10;23.37;;;;;;;5.60;100.00;98715.78;5111434;28;20590;-60
2023/03/07 04:30:08;;;;;;;37.30;22.17;;;;;;;5.66;100.00;98712.22;5109061;28;20203;-60
2023/03/07 04:32:35;;;;;;;44.37;23.13;;;;;;;5.62;100.00;98708.88;5105325;28;20223;-59
2023/03/07 04:35:02;;;;;;;35.80;23.27;;;;;;;5.54;100.00;98710.75;5104595;28;20202;-59
2023/03/07 04:37:29;;;;;;;38.80;21.83;;;;;;;5.52;100.00;98714.25;5108284;28;20191;-59
2023/03/07 04:39:56;;;;;;;36.57;22.37;;;;;;;5.47;100.00;98720.34;5104095;28;20246;-60
2023/03/07 04:42:24;;;;;;;42.83;23.70;;;;;;;5.54;100.00;98722.78;5102077;28;20243;-60
2023/03/07 04:44:51;;;;;;;38.43;23.00;;;;;;;5.43;100.00;98717.84;5106424;28;20229;-59
2023/03/07 04:47:18;;;;;;;39.23;24.23;;;;;;;5.38;100.00;98720.53;5105070;28;20219;-59
2023/03/07 04:49:45;;;;;;;40.20;23.97;;;;;;;5.37;100.00;98720.56;5105967;28;20203;-59
2023/03/07 04:52:12;;;;;;;40.10;23.70;;;;;;;5.45;100.00;98726.41;5109824;28;20601;-60
2023/03/07 04:54:39;;;;;;;45.03;24.40;;;;;;;5.36;100.00;98735.16;5109755;28;20609;-60
2023/03/07 04:57:07;;;;;;;42.63;23.80;;;;;;;5.43;100.00;98728.16;5110481;28;20604;-60
2023/03/07 04:59:38;;;;;;;41.47;23.57;;;;;;;5.50;100.00;98722.03;5110128;28;20635;-59
2023/03/07 05:02:06;;;;;;;43.77;23.70;;;;;;;5.60;100.00;98723.50;5109516;28;20770;-59
2023/03/07 05:04:33;;;;;;;42.47;24.03;;;;;;;5.58;100.00;98720.13;5109992;28;20218;-60
2023/03/07 05:07:00;;;;;;;48.63;24.80;;;;;;;5.68;100.00;98731.91;5110074;28;20210;-59
2023/03/07 05:09:27;;;;;;;41.93;25.80;;;;;;;5.69;100.00;98740.47;5109863;28;20614;-59
2023/03/07 05:11:54;;;;;;;44.87;24.03;;;;;;;5.72;100.00;98733.53;5109958;28;20293;-59
2023/03/07 05:14:21;;;;;;;47.50;25.17;;;;;;;5.77;100.00;98736.84;5109877;28;20733;-59
2023/03/07 05:16:49;;;;;;;42.43;25.07;;;;;;;5.87;100.00;98737.50;5109466;28;20245;-58
2023/03/07 05:19:16;;;;;;;41.40;24.27;;;;;;;6.04;100.00;98739.72;5109630;28;20219;-58
2023/03/07 05:21:43;;;;;;;39.20;23.77;;;;;;;6.12;100.00;98735.25;5109367;28;20222;-59
2023/03/07 05:24:10;;;;;;;39.50;23.57;;;;;;;6.12;100.00;98728.34;5107980;28;20244;-59
2023/03/07 05:26:37;;;;;;;46.03;25.27;;;;;;;6.21;100.00;98724.72;5106617;28;20229;-59
2023/03/07 05:29:04;;;;;;;50.27;24.03;;;;;;;6.46;100.00;98737.84;5109132;27;20313;-60
2023/03/07 05:31:31;;;;;;;38.03;23.70;;;;;;;6.62;100.00;98743.50;5109262;28;20222;-57
2023/03/07 05:33:59;;;;;;;42.23;23.83;;;;;;;6.55;100.00;98742.78;5128390;27;20225;-58
2023/03/07 05:36:27;;;;;;;40.10;24.80;;;;;;;6.63;100.00;98743.47;5128174;27;20202;-60
2023/03/07 05:39:00;;;;;;;41.33;25.37;;;;;;;6.73;100.00;98746.63;5130017;27;20250;-59
2023/03/07 05:41:27;;;;;;;45.13;28.27;;;;;;;6.96;100.00;98761.53;5130694;27;20685;-59
2023/03/07 05:43:54;;;;;;;47.43;28.27;;;;;;;7.14;100.00;98758.44;5130364;27;20194;-59
2023/03/07 05:46:21;;;;;;;43.97;27.43;;;;;;;7.55;100.00;98749.56;5130719;27;20262;-60
2023/03/07 05:48:48;;;;;;;49.43;27.43;;;;;;;7.81;100.00;98751.34;5130142;27;20225;-59
2023/03/07 05:51:16;;;;;;;47.23;25.53;;;;;;;8.03;100.00;98757.56;5130224;27;20293;-60
2023/03/07 05:53:45;;;;;;;43.23;26.13;;;;;;;8.28;100.00;98753.34;5130495;27;20230;-60
2023/03/07 05:56:12;;;;;;;41.13;24.70;;;;;;;8.53;100.00;98760.34;5130290;27;20229;-58
2023/03/07 05:58:39;;;;;;;37.40;22.37;;;;;;;8.71;100.00;98763.16;5130377;27;20209;-59
2023/03/07 06:01:06;;;;;;;37.00;21.43;;;;;;;8.87;99.44;98753.16;5130068;27;20202;-59
2023/03/07 06:03:33;;;;;;;35.63;22.07;;;;;;;9.16;98.75;98759.06;5112583;27;20193;-59
2023/03/07 06:06:00;;;;;;;38.37;21.23;;;;;;;9.51;94.23;98757.78;5108108;28;20195;-59
2023/03/07 06:08:28;;;;;;;35.30;21.43;;;;;;;9.85;92.58;98766.00;5108516;28;20198;-59
2023/03/07 06:10:55;;;;;;;41.13;21.13;;;;;;;10.09;88.99;98762.47;5108418;28;20202;-59
2023/03/07 06:13:23;;;;;;;33.93;20.30;;;;;;;10.10;88.57;98765.91;5109855;28;20221;-59
2023/03/07 06:15:51;;;;;;;35.03;21.77;;;;;;;9.93;88.93;98776.09;5108602;28;20201;-60
2023/03/07 06:18:18;;;;;;;33.37;22.07;;;;;;;9.80;88.13;98758.41;5107933;28;20195;-59
2023/03/07 06:20:54;;;;;;;44.83;23.13;;;;;;;10.11;88.32;98773.63;5108462;28;20659;-60
2023/03/07 06:23:21;;;;;;;37.13;21.93;;;;;;;9.86;88.32;98775.47;5108486;28;20251;-59
2023/03/07 06:25:49;;;;;;;46.33;21.47;;;;;;;9.89;88.92;98775.38;5108208;28;20199;-60
2023/03/07 06:28:16;;;;;;;30.87;19.60;;;;;;;10.59;86.67;98779.56;5107938;28;20201;-61
2023/03/07 06:30:43;;;;;;;39.63;19.87;;;;;;;11.86;80.97;98781.00;5107898;28;20277;-59
2023/03/07 06:33:10;;;;;;;29.97;20.33;;;;;;;13.26;74.66;98782.00;5112190;28;20303;-60
2023/03/07 06:35:39;;;;;;;31.73;18.97;;;;;;;15.05;67.82;98794.78;5112141;28;20205;-60
2023/03/07 06:38:06;;;;;;;24.60;17.07;;;;;;;16.68;61.50;98796.88;5111945;28;20198;-60
2023/03/07 06:40:33;;;;;;;26.10;18.37;;;;;;;18.32;55.88;98808.34;5112139;28;20249;-60
2023/03/07 06:43:01;;;;;;;25.97;18.30;;;;;;;19.19;52.72;98807.22;5111549;28;20278;-60
2023/03/07 06:45:28;;;;;;;24.90;18.80;;;;;;;20.47;49.29;98797.25;5111873;28;20198;-61
2023/03/07 06:47:55;;;;;;;38.65;19.17;;;;;;;22.15;43.40;98810.38;5111977;28;20223;-60
2023/03/07 06:50:22;;;;;;;26.73;18.83;;;;;;;23.20;39.57;98814.16;5113209;28;20199;-59
2023/03/07 06:52:50;;;;;;;29.75;17.63;;;;;;;22.04;39.54;98806.03;5113440;28;20585;-59
2023/03/07 06:55:18;;;;;;;22.55;17.65;;;;;;;22.41;39.33;98809.75;5110986;28;20223;-60
2023/03/07 06:57:45;;;;;;;21.83;18.10;;;;;;;22.24;38.62;98809.56;5112087;28;20666;-59
2023/03/07 07:00:14;;;;;;;24.02;18.30;;;;;;;22.81;37.77;98811.50;5112219;28;20206;-60
2023/03/07 07:02:41;;;;;;;23.50;17.10;;;;;;;23.60;36.24;98820.09;5112965;28;20195;-60
2023/03/07 07:05:09;;;;;;;23.63;17.40;;;;;;;23.67;35.68;98815.06;5095127;28;20203;-60
2023/03/07 07:07:36;;;;;;;24.45;17.50;;;;;;;23.58;35.74;98816.78;5094945;28;20582;-60
2023/03/07 07:10:03;;;;;;;24.27;19.50;;;;;;;23.25;36.24;98807.44;5111980;28;20201;-60
2023/03/07 07:12:31;;;;;;;24.67;18.55;;;;;;;24.34;35.11;98816.63;5111890;28;20190;-61
2023/03/07 07:15:00;;;;;;;26.67;19.52;;;;;;;24.76;33.97;98816.91;5112374;28;20226;-61
2023/03/07 07:17:29;;;;;;;22.08;18.20;;;;;;;25.94;32.24;98820.88;5111954;28;20194;-61
2023/03/07 07:19:56;;;;;;;30.40;19.35;;;;;;;26.39;30.84;98831.25;5111929;28;20217;-60
2023/03/07 07:22:23;;;;;;;27.65;18.40;;;;;;;26.20;31.42;98818.16;5112088;28;20198;-59
2023/03/07 07:24:50;;;;;;;23.95;18.80;;;;;;;26.40;30.61;98813.47;5111867;28;20187;-61
2023/03/07 07:27:17;;;;;;;22.95;19.35;;;;;;;23.36;34.65;98809.13;5112001;28;20667;-60
2023/03/07 07:29:44;;;;;;;26.95;19.48;;;;;;;21.05;39.07;98805.69;5112444;28;20640;-60
2023/03/07 07:32:11;;;;;;;25.90;18.92;;;;;;;18.14;45.60;98794.75;5113141;28;20592;-60
2023/03/07 07:34:39;;;;;;;26.38;19.42;;;;;;;16.27;51.40;98793.41;5112469;28;20228;-59
2023/03/07 07:37:07;;;;;;;28.95;18.83;;;;;;;15.28;54.87;98783.81;5112442;28;20698;-59
2023/03/07 07:39:34;;;;;;;27.60;18.87;;;;;;;14.75;57.34;98794.78;5111904;28;20608;-59
2023/03/07 07:42:01;;;;;;;27.63;19.33;;;;;;;14.73;58.19;98789.63;5112626;28;20221;-59
2023/03/07 07:44:29;;;;;;;23.70;18.47;;;;;;;13.82;61.59;98782.50;5112948;28;20213;-59
2023/03/07 07:46:56;;;;;;;23.83;19.10;;;;;;;13.31;64.47;98796.50;5111483;28;20228;-58
2023/03/07 07:49:23;;;;;;;28.23;19.87;;;;;;;13.40;64.29;98782.16;5112844;28;20223;-59
2023/03/07 07:51:51;;;;;;;34.60;19.93;;;;;;;13.42;64.49;98788.13;5111939;28;20595;-60
2023/03/07 07:54:19;;;;;;;25.73;19.40;;;;;;;13.18;65.94;98792.00;5111477;28;20211;-59
2023/03/07 07:56:46;;;;;;;30.53;19.80;;;;;;;13.22;65.74;98781.31;5109269;28;20263;-59
2023/03/07 07:59:13;;;;;;;27.60;18.93;;;;;;;13.39;65.40;98785.69;5110911;28;20201;-59
2023/03/07 08:01:40;;;;;;;25.83;18.50;;;;;;;13.36;65.25;98778.84;5111225;28;20198;-59
2023/03/07 08:04:06;;;;;;;24.37;18.20;;;;;;;13.56;64.88;98783.03;5110903;28;20274;-60
2023/03/07 08:06:33;;;;;;;28.33;18.87;;;;;;;13.13;65.89;98780.91;5111082;28;20201;-59
2023/03/07 08:09:02;;;;;;;28.20;20.50;;;;;;;13.29;66.63;98776.66;5112381;28;20205;-59
2023/03/07 08:11:29;;;;;;;27.73;18.47;;;;;;;13.04;67.87;98779.63;5112674;28;20255;-59
2023/03/07 08:13:56;;;;;;;25.43;17.63;;;;;;;12.60;70.40;98771.41;5108864;28;20514;-59
2023/03/07 08:16:23;;;;;;;30.53;18.40;;;;;;;12.89;70.36;98767.38;5101424;28;20225;-60
2023/03/07 08:18:52;;;;;;;33.67;20.23;;;;;;;13.10;68.43;98754.09;5091739;28;20229;-59
2023/03/07 08:21:20;;;;;;;28.93;19.13;;;;;;;13.29;67.19;98761.84;5091577;28;20199;-58
2023/03/07 08:23:47;;;;;;;33.00;19.47;;;;;;;13.41;66.73;98765.59;5091848;28;20195;-58
2023/03/07 08:26:16;;;;;;;27.10;19.20;;;;;;;13.67;66.04;98767.66;5091649;28;20196;-60
2023/03/07 08:28:43;;;;;;;23.70;17.80;;;;;;;13.74;64.97;98771.63;5097147;28;20661;-59
2023/03/07 08:31:12;;;;;;;25.60;17.47;;;;;;;13.80;65.09;98762.63;5097012;28;20206;-59
2023/03/07 08:33:39;;;;;;;25.53;18.37;;;;;;;13.74;65.13;98770.78;5091299;28;20209;-60
2023/03/07 08:36:07;;;;;;;33.70;18.77;;;;;;;13.79;64.90;98780.03;5091356;28;20223;-59
2023/03/07 08:38:34;;;;;;;24.47;17.77;;;;;;;13.53;64.78;98770.16;5091470;28;20200;-59
2023/03/07 08:41:02;;;;;;;25.57;18.70;;;;;;;13.64;64.32;98773.06;5091480;28;20199;-59
2023/03/07 08:43:32;;;;;;;25.70;18.20;;;;;;;13.54;65.32;98771.00;5091733;28;20195;-60
2023/03/07 08:46:00;;;;;;;27.73;18.70;;;;;;;13.49;64.84;98763.41;5091149;28;20205;-59
2023/03/07 08:48:27;;;;;;;41.43;20.87;;;;;;;13.56;65.38;98763.91;5090791;28;20227;-60
2023/03/07 08:50:55;;;;;;;26.77;19.63;;;;;;;13.89;63.87;98763.88;5090744;28;20202;-60
2023/03/07 08:53:22;;;;;;;34.43;18.87;;;;;;;14.10;63.42;98754.91;5090535;28;20206;-60
2023/03/07 08:55:49;;;;;;;27.40;19.60;;;;;;;14.15;62.40;98764.16;5091239;28;20223;-62
2023/03/07 08:58:16;;;;;;;26.20;18.87;;;;;;;14.30;62.20;98765.09;5091042;28;20209;-59
2023/03/07 09:00:44;;;;;;;27.23;18.27;;;;;;;14.31;61.77;98761.53;5090950;28;20671;-59
2023/03/07 09:03:11;;;;;;;26.17;18.20;;;;;;;14.30;61.82;98766.84;5090684;28;20202;-59
2023/03/07 09:05:38;;;;;;;25.00;18.73;;;;;;;13.94;62.81;98754.06;5093480;28;20262;-59
2023/03/07 09:08:06;;;;;;;28.03;19.83;;;;;;;13.85;62.91;98752.78;5099686;28;20600;-59
2023/03/07 09:10:33;;;;;;;29.77;20.03;;;;;;;13.97;63.52;98756.50;5090788;28;20206;-60
2023/03/07 09:13:00;;;;;;;25.83;18.67;;;;;;;14.04;63.17;98756.06;5090559;28;20191;-59
2023/03/07 09:15:27;;;;;;;31.00;18.90;;;;;;;14.03;62.67;98757.00;5090457;28;20219;-61
2023/03/07 09:17:56;;;;;;;26.23;18.93;;;;;;;14.01;63.59;98758.00;5090455;28;20199;-60
2023/03/07 09:20:23;;;;;;;29.47;19.27;;;;;;;13.78;63.66;98749.66;5090579;28;20200;-63
2023/03/07 09:22:53;;;;;;;26.90;19.63;;;;;;;13.60;64.54;98744.59;5090726;28;20188;-60
2023/03/07 09:25:20;;;;;;;30.23;19.40;;;;;;;13.71;64.45;98739.66;5090610;28;20222;-60
2023/03/07 09:27:47;;;;;;;29.80;19.20;;;;;;;13.64;64.13;98748.75;5090428;28;20278;-60
2023/03/07 09:30:15;;;;;;;29.87;18.57;;;;;;;13.62;63.70;98746.22;5090618;28;20282;-60
2023/03/07 09:32:42;;;;;;;30.00;17.20;;;;;;;13.60;63.38;98744.59;5090628;28;20203;-60
2023/03/07 09:35:11;;;;;;;31.30;18.60;;;;;;;13.40;64.11;98727.41;5090144;28;20219;-60
2023/03/07 09:37:38;;;;;;;23.47;18.03;;;;;;;13.60;65.94;98732.41;5090294;28;20199;-59
2023/03/07 09:40:07;;;;;;;23.63;17.87;;;;;;;13.64;64.40;98735.69;5089303;28;20213;-59
2023/03/07 09:42:43;;;;;;;31.17;18.50;;;;;;;13.85;64.23;98733.69;5088661;28;20634;-59
2023/03/07 09:45:21;;;;;;;26.97;17.70;;;;;;;13.99;63.03;98733.78;5090134;28;20667;-59
2023/03/07 09:48:08;;;;;;;30.30;17.83;;;;;;;14.04;61.82;98736.97;5090133;28;20682;-59
2023/03/07 09:50:45;;;;;;;29.10;16.67;;;;;;;13.94;61.21;98735.78;5090010;28;20195;-59
2023/03/07 09:53:19;;;;;;;25.87;16.63;;;;;;;13.95;60.98;98727.03;5090042;28;20256;-59
2023/03/07 09:55:50;;;;;;;23.23;16.77;;;;;;;13.97;61.15;98730.41;5090007;28;20643;-59
2023/03/07 09:58:20;;;;;;;24.57;17.63;;;;;;;14.09;61.26;98714.09;5089734;28;20210;-60
2023/03/07 10:00:51;;;;;;;25.87;16.17;;;;;;;14.19;60.38;98710.03;5089908;28;20195;-60
2023/03/07 10:03:32;;;;;;;25.23;14.27;;;;;;;14.14;58.92;98714.66;5090173;28;20286;-60
2023/03/07 10:06:08;;;;;;;19.33;15.23;;;;;;;14.21;58.87;98716.00;5088809;28;20202;-60
2023/03/07 10:08:35;;;;;;;22.20;16.03;;;;;;;14.36;58.74;98709.91;5089862;28;20202;-60
2023/03/07 10:11:14;;;;;;;24.10;15.60;;;;;;;14.57;58.25;98707.03;5089743;28;20717;-61
2023/03/07 10:13:57;;;;;;;25.37;16.77;;;;;;;14.77;58.05;98699.72;5088543;28;20646;-59
2023/03/07 10:16:30;;;;;;;27.57;17.67;;;;;;;14.77;57.48;98701.50;5089648;28;20218;-59
2023/03/07 10:19:14;;;;;;;32.87;17.63;;;;;;;14.98;57.37;98702.84;5096736;28;20226;-59
2023/03/07 10:21:53;;;;;;;27.47;18.00;;;;;;;15.14;56.58;98698.34;5110023;28;20256;-60
2023/03/07 10:24:33;;;;;;;24.10;16.60;;;;;;;15.13;54.96;98701.91;5109567;28;20210;-59
2023/03/07 10:27:04;;;;;;;22.77;16.63;;;;;;;15.16;54.92;98688.66;5109797;28;20202;-59
2023/03/07 10:29:38;;;;;;;21.97;15.67;;;;;;;15.27;54.75;98688.00;5109940;28;20293;-59
2023/03/07 10:32:18;;;;;;;27.67;15.93;;;;;;;15.32;54.53;98683.34;5109826;28;20609;-59
2023/03/07 10:34:47;;;;;;;27.20;16.63;;;;;;;15.38;55.11;98675.09;5109985;28;20775;-60
2023/03/07 10:37:19;;;;;;;27.80;16.73;;;;;;;15.26;55.00;98678.47;5109704;28;20220;-59
2023/03/07 10:39:51;;;;;;;23.37;15.50;;;;;;;15.32;54.36;98664.19;5109795;28;20220;-59
2023/03/07 10:42:21;;;;;;;22.60;16.20;;;;;;;15.19;55.74;98664.94;5109775;28;20565;-60
2023/03/07 10:44:49;;;;;;;27.13;17.20;;;;;;;15.05;56.35;98645.81;5109808;28;20595;-60
2023/03/07 10:47:21;;;;;;;23.83;17.03;;;;;;;15.19;57.00;98653.66;5109326;28;20759;-59
2023/03/07 10:49:51;;;;;;;27.20;17.43;;;;;;;15.28;57.15;98637.41;5109728;28;20234;-59
2023/03/07 10:52:30;;;;;;;22.03;17.13;;;;;;;15.37;58.73;98639.44;5109966;28;20684;-60
2023/03/07 10:55:30;;;;;;;26.33;17.20;;;;;;;15.37;57.69;98636.81;5109583;28;20218;-59
2023/03/07 10:58:12;;;;;;;23.07;15.80;;;;;;;15.36;57.41;98634.28;5109517;28;20195;-60
2023/03/07 11:00:39;;;;;;;25.53;13.70;;;;;;;15.27;55.72;98625.25;5109698;28;20615;-59
2023/03/07 11:03:22;;;;;;;18.57;13.93;;;;;;;15.24;55.57;98607.13;5109048;28;20201;-59
2023/03/07 11:05:49;;;;;;;20.80;13.33;;;;;;;15.08;56.85;98598.59;5109973;28;20572;-59
2023/03/07 11:08:27;;;;;;;18.03;11.93;;;;;;;15.07;56.66;98613.44;5109483;28;20268;-59
2023/03/07 11:10:54;;;;;;;15.10;11.63;;;;;;;15.01;57.12;98595.50;5110518;28;20669;-59
2023/03/07 11:13:22;;;;;;;14.13;11.60;;;;;;;15.08;55.60;98596.81;5110084;28;20402;-59
2023/03/07 11:15:49;;;;;;;13.07;10.53;;;;;;;15.13;55.35;98589.50;5110347;28;20240;-59
2023/03/07 11:18:30;;;;;;;12.53;10.40;;;;;;;15.34;54.30;98584.75;5113022;28;20201;-58
2023/03/07 11:20:58;;;;;;;13.30;10.23;;;;;;;15.31;52.52;98589.31;5113119;28;20281;-59
2023/03/07 11:23:29;;;;;;;13.53;10.93;;;;;;;15.24;54.03;98578.38;5113297;28;20203;-59